• Join FlightAware (Why Join?)
  • Login
  • US Flag 
12:42AM EDT


 

Airport Tracker/Info


-or-


 

Live Flight TrackerFlight Track Log ✈ C-GIRL ✈ 31-Mar-2014 ✈ CYHU - CYML

Flight Track Log - Related Links

Times and Time Zones

All times are in EDT time to prevent confusion due to time zone crossing. See the C-GIRL flight status page for this flight to view local times or setup timezone preferences in your user account.

Time Position Orientation Groundspeed Altitude Reporting Facility
EDT Latitude Longitude Course Direction KTS MPH feet Rate Location/Type
07:22PM 45.5333 -73.3667 58° Northeast 170 196 2,800  Level Montreal Center
07:23PM 45.5833 -73.3333 25° Northeast 170 196 6,800 3,720 Climbing Montreal Center
07:24PM 45.6333 -73.3000 25° Northeast 180 207 10,300 3,180 Climbing Montreal Center
07:25PM 45.6833 -73.3000 360° North 190 219 13,200 2,580 Climbing Montreal Center
07:26PM 45.7333 -73.3000 360° North 210 242 15,500 2,340 Climbing Montreal Center
07:27PM 46.0644 -73.2396 13° North  Level FlightAware Approximate
07:27PM 45.8000 -73.2833 10° North 210 242 17,900  Level Montreal Center
07:28PM 46.1235 -73.1788 58° Northeast  Level FlightAware Approximate
07:28PM 45.8667 -73.2667 10° North 230 265 19,900  Level Montreal Center
07:29PM 45.9333 -73.2667 360° North 230 265 22,100 1,980 Climbing Montreal Center
07:30PM 46.0000 -73.2333 19° North 240 276 23,900 1,800 Climbing Montreal Center
07:31PM 46.0667 -73.2333 360° North 250 288 25,700 1,740 Climbing Montreal Center
07:32PM 46.1333 -73.1833 27° Northeast 260 299 27,400 1,560 Climbing Montreal Center
07:33PM 46.1500 -73.1167 70° East 270 311 28,900 1,380 Climbing Montreal Center
07:34PM 46.2167 -73.0167 46° Northeast 280 322 30,200 1,200 Climbing Montreal Center
07:35PM 46.2667 -72.9167 54° Northeast 290 334 31,400 1,200 Climbing Montreal Center
07:36PM 46.3167 -72.8333 49° Northeast 290 334 32,700 720 Climbing Montreal Center
07:37PM 46.3667 -72.7333 54° Northeast 300 345 32,900 -300 Climbing Montreal Center
07:38PM 46.4333 -72.6167 50° Northeast 330 380 32,100 -900 Descending Montreal Center
07:39PM 46.5000 -72.5000 50° Northeast 360 414 31,200 -900 Descending Montreal Center
07:40PM 46.5500 -72.3833 58° Northeast 370 426 30,300 -840 Descending Montreal Center
07:41PM 46.6000 -72.2833 54° Northeast 370 426 29,600 -720 Descending Montreal Center
07:42PM 46.6667 -72.1500 54° Northeast 360 414 28,900 -720 Descending Montreal Center
07:43PM 46.7333 -72.0333 50° Northeast 360 414 28,200 -720 Descending Montreal Center
07:44PM 46.7667 -71.9000 70° East 370 426 27,500 -720 Descending Montreal Center
07:45PM 46.8167 -71.7667 61° Northeast 370 426 26,800 -720 Descending Montreal Center
07:46PM 46.8667 -71.6167 64° Northeast 370 426 26,100 -720 Descending Montreal Center
07:47PM 46.9167 -71.5000 58° Northeast 360 414 25,400 -720 Descending Montreal Center
07:48PM 46.9500 -71.3667 70° East 340 391 24,700 -1,200 Descending Montreal Center
07:49PM 47.0000 -71.2333 61° Northeast 340 391 23,000 -1,740 Descending Montreal Center
07:50PM 47.0333 -71.1333 64° Northeast 320 368 21,300 -1,740 Descending Montreal Center
07:51PM 47.0667 -71.0167 67° East 310 357 19,600 -1,620 Descending Montreal Center
07:52PM 47.1000 -70.9167 64° Northeast 300 345 18,100 -1,500 Descending Montreal Center
07:53PM 47.1500 -70.7833 61° Northeast 290 334 16,600 -1,500 Descending Montreal Center
07:54PM 47.1667 -70.6833 76° East 280 322 15,200 -1,440 Descending Montreal Center
07:55PM 47.2000 -70.6000 59° Northeast 270 311 13,800 -1,440 Descending Montreal Center
07:56PM 47.2333 -70.4833 67° East 260 299 12,400 -1,380 Descending Montreal Center
07:57PM 47.2667 -70.4000 59° Northeast 250 288 11,100 -1,320 Descending Montreal Center
07:58PM 47.2833 -70.3000 76° East 240 276 9,800 -1,260 Descending Montreal Center
07:59PM 47.3000 -70.2167 74° East 230 265 8,600 -1,200 Descending Montreal Center
08:00PM 47.3333 -70.1500 54° Northeast 230 265 7,400 -1,260 Descending Montreal Center
08:01PM 47.3667 -70.0333 67° East 230 265 6,100 -1,140 Descending Montreal Center
08:02PM 47.4000 -69.9833 45° Northeast 220 253 5,200 -480 Descending Montreal Center
08:03PM 47.4500 -69.9833 360° North 200 230 5,200 -600 Level Montreal Center
08:04PM 47.5000 -70.0167 336° Northwest 180 207 4,100 480 Descending Montreal Center
08:12PM 47.7167 -70.1500 296° West 250 288 9,800 960 Climbing Montreal Center
08:13PM 47.5833 -70.2167 296° West  Level FlightAware Approximate
08:13PM 47.7500 -70.2167 307° West 240 276 13,000  Level Montreal Center
08:14PM 47.5975 -70.2239 296° West  Level Estimated
08:14PM 47.8167 -70.3167 315° West 270 311 14,000  Level Montreal Center
08:15PM 47.5975 -70.2239 296° West  Level Estimated
08:15PM 47.8500 -70.4000 301° West 290 334 14,300  Level Montreal Center
08:16PM 47.5975 -70.2239 296° West  Level Estimated
08:16PM 47.8833 -70.5000 296° West 270 311 17,500  Level Montreal Center
08:17PM 47.5975 -70.2239 296° West  Level Estimated
08:17PM 47.9500 -70.6000 315° West 260 299 19,700  Level Montreal Center
08:18PM 47.5975 -70.2239 296° West  Level Estimated
08:18PM 47.9833 -70.7000 297° West 280 322 20,000  Level Montreal Center
08:19PM 48.0333 -70.7833 312° West 310 357 20,000  Level Montreal Center
08:20PM 48.1000 -70.9167 307° West 310 357 20,000  Level Montreal Center
08:21PM 48.1500 -71.0000 312° West 310 357 20,000  Level Montreal Center
08:22PM 48.1833 -71.1333 291° West 310 357 20,000  Level Montreal Center
08:23PM 48.2500 -71.2167 320° Northwest 310 357 20,000 -420 Level Montreal Center
08:24PM 48.3000 -71.3167 307° West 300 345 19,200 -1,320 Descending Montreal Center
08:25PM 48.3500 -71.4167 307° West 290 334 17,400 -1,800 Descending Montreal Center
08:26PM 48.4000 -71.4833 318° Northwest 280 322 15,600 -1,800 Descending Montreal Center
08:27PM 48.4500 -71.5833 307° West 280 322 13,800 -420 Descending Montreal Center
08:41PM 48.6500 -72.5000 133° Southeast 260 299 9,800 -60 Descending Montreal Center
08:42PM 48.5833 -72.5333 198° South 270 311 13,100 2,940 Climbing Montreal Center
08:43PM 48.5000 -72.5667 195° South 290 334 15,700 2,460 Climbing Montreal Center
08:44PM 48.1143 -71.0371 133° Southeast  Level FlightAware Approximate
08:44PM 48.4167 -72.6000 195° South 300 345 18,100  Level Montreal Center
08:45PM 48.0733 -70.9712 133° Southeast  Level FlightAware Approximate
08:45PM 48.3333 -72.6333 195° South 310 357 20,300  Level Montreal Center
08:46PM 48.0323 -70.9055 133° Southeast  Level FlightAware Approximate
08:46PM 48.2500 -72.6667 195° South 320 368 22,500  Level Montreal Center
08:47PM 48.1667 -72.7000 195° South 320 368 24,200 1,740 Climbing Montreal Center
08:48PM 48.0667 -72.7167 186° South 330 380 26,000 1,560 Climbing Montreal Center
08:49PM 47.9833 -72.7500 195° South 350 403 27,400 960 Climbing Montreal Center
08:50PM 47.8833 -72.7833 193° South 360 414 28,000 300 Climbing Montreal Center
08:51PM 47.7667 -72.8500 201° Southwest 400 460 28,000  Level Montreal Center
08:52PM 47.6667 -72.8667 186° South 410 472 28,000  Level Montreal Center
08:53PM 47.5500 -72.9333 201° Southwest 410 472 28,000  Level Montreal Center
08:54PM 47.4333 -72.9667 191° South 400 460 28,000  Level Montreal Center
08:55PM 47.3333 -73.0000 193° South 400 460 28,000 -900 Level Montreal Center
08:56PM 47.2167 -73.0500 196° South 390 449 26,300 -1,800 Descending Montreal Center
08:57PM 47.1167 -73.0833 193° South 370 426 24,400 -2,040 Descending Montreal Center
08:58PM 47.0167 -73.1167 193° South 360 414 22,300 -1,980 Descending Montreal Center
08:59PM 46.9167 -73.1500 193° South 360 414 20,500 -1,920 Descending Montreal Center
09:00PM 46.8167 -73.1667 187° South 350 403 18,500 -1,860 Descending Montreal Center
09:01PM 46.7333 -73.2333 209° Southwest 340 391 16,800 -1,800 Descending Montreal Center
09:02PM 46.6333 -73.2500 187° South 330 380 14,900 -1,800 Descending Montreal Center
09:03PM 46.5500 -73.2833 195° South 320 368 13,300 -1,740 Descending Montreal Center
09:04PM 46.4667 -73.3167 195° South 310 357 11,500 -1,680 Descending Montreal Center
09:05PM 46.3833 -73.3333 188° South 300 345 10,000 -1,620 Descending Montreal Center
09:06PM 46.3000 -73.3667 195° South 300 345 8,300 -1,620 Descending Montreal Center
09:07PM 46.2167 -73.4000 195° South 300 345 6,800 -1,200 Descending Montreal Center
09:08PM 46.1500 -73.4333 199° South 260 299 6,000 -420 Descending Montreal Center
09:09PM 46.0833 -73.4333 180° South 260 299 6,000 -180 Level Montreal Center
09:10PM 46.0000 -73.4333 180° South 260 299 5,700 -420 Descending Montreal Center
09:11PM 45.9333 -73.4667 199° South 260 299 5,200 -540 Descending Montreal Center
09:12PM 45.8667 -73.4667 180° South 240 276 4,700 -540 Descending Montreal Center
09:13PM 45.8000 -73.4667 180° South 240 276 4,200 -900 Descending Montreal Center
09:14PM 45.7333 -73.5000 199° South 250 288 3,000 -600 Descending Montreal Center
09:15PM 45.6667 -73.5000 180° South 210 242 3,000  Level Montreal Center
09:16PM 45.6167 -73.5167 193° South 190 219 3,000  Level Montreal Center
09:17PM 45.5667 -73.5667 215° Southwest 200 230 3,000 -480 Level Montreal Center
09:18PM 45.5333 -73.6167 226° Southwest 180 207 2,100 -900 Descending Montreal Center
09:19PM 45.5000 -73.6500 215° Southwest 160 184 1,200 -900 Descending Montreal Center
09:20PM 45.4667 -73.7000 226° Southwest 120 138 400 -600 Descending Montreal Center
09:21PM 45.4500 -73.7167 215° Southwest 50 58 100 -180 Descending Montreal Center
09:22PM 45.4667 -73.7000 35° Northeast 200 230 100  Level Montreal Center